Time;durP1;ratioP1;P1;durP2;ratioP2;P2;SDS_P1;SDS_P2;PMS_P1;PMS_P2;Temp;Humidity;BMP_temperature;BMP_pressure;BME280_temperature;BME280_humidity;BME280_pressure;Samples;Min_cycle;Max_cycle;Signal;HPM_P1;HPM_P2
2021/10/20 00:00:22;;;;;;;4.82;3.60;;;10.80;99.90;;;;;;6118229;29;20407;-80
2021/10/20 00:03:23;;;;;;;3.70;3.13;;;;;;;;;;6123300;29;20402;-81
2021/10/20 00:06:23;;;;;;;4.10;2.88;;;10.80;99.90;;;;;;6107049;29;20055;-81
2021/10/20 00:09:24;;;;;;;6.00;3.60;;;;;;;;;;6125069;29;20043;-81
2021/10/20 00:12:25;;;;;;;5.40;3.33;;;;;;;;;;6116576;29;20066;-81
2021/10/20 00:15:26;;;;;;;4.28;3.38;;;11.00;99.90;;;;;;6101137;29;20032;-81
2021/10/20 00:18:27;;;;;;;4.30;3.10;;;10.80;99.90;;;;;;6100978;29;20020;-81
2021/10/20 00:21:29;;;;;;;4.15;3.47;;;10.80;99.90;;;;;;6104569;29;20055;-81
2021/10/20 00:24:29;;;;;;;;;;;11.00;99.90;;;;;;6111549;29;20036;-82
2021/10/20 00:27:31;;;;;;;4.18;3.38;;;10.70;99.90;;;;;;6101913;29;20366;-82
2021/10/20 00:30:31;;;;;;;6.28;3.40;;;10.50;99.90;;;;;;6101125;29;20356;-81
2021/10/20 00:33:32;;;;;;;4.72;3.50;;;10.70;99.90;;;;;;6100463;29;20044;-81
2021/10/20 00:36:32;;;;;;;5.80;3.03;;;10.40;99.90;;;;;;6102103;29;20039;-81
2021/10/20 00:39:33;;;;;;;3.60;3.10;;;10.60;99.90;;;;;;6100057;29;20458;-81
2021/10/20 00:42:34;;;;;;;5.35;3.60;;;10.40;99.90;;;;;;6101816;29;20055;-81
2021/10/20 00:45:35;;;;;;;4.40;3.50;;;10.70;99.90;;;;;;6113126;29;20590;-81
2021/10/20 00:48:36;;;;;;;4.80;3.85;;;10.40;99.90;;;;;;6122801;29;20032;-81
2021/10/20 00:51:37;;;;;;;3.67;3.25;;;;;;;;;;6122612;29;20136;-81
2021/10/20 00:54:38;;;;;;;4.57;3.75;;;10.20;99.90;;;;;;6124258;29;20418;-81
2021/10/20 00:57:39;;;;;;;3.35;3.05;;;10.20;99.90;;;;;;6122781;29;20046;-81
2021/10/20 01:00:40;;;;;;;4.95;3.15;;;;;;;;;;6122511;29;20048;-81
2021/10/20 01:03:41;;;;;;;4.32;3.20;;;10.40;99.90;;;;;;6100101;29;20497;-81
2021/10/20 01:06:41;;;;;;;3.92;3.53;;;10.40;99.90;;;;;;6101381;29;20167;-80
2021/10/20 01:09:42;;;;;;;3.92;2.85;;;10.20;99.90;;;;;;6099477;29;20032;-81
2021/10/20 01:12:43;;;;;;;4.38;3.10;;;;;;;;;;6099186;29;20040;-81
2021/10/20 01:15:44;;;;;;;4.32;3.20;;;10.30;99.90;;;;;;6099745;29;20028;-81
2021/10/20 01:18:45;;;;;;;4.28;3.35;;;;;;;;;;6100510;29;20398;-81
2021/10/20 01:21:46;;;;;;;3.40;3.05;;;;;;;;;;6099525;29;20493;-81
2021/10/20 01:24:46;;;;;;;4.15;3.10;;;10.20;99.90;;;;;;6098947;29;20044;-81
2021/10/20 01:27:47;;;;;;;3.22;2.85;;;;;;;;;;6099613;29;20020;-81
2021/10/20 01:30:48;;;;;;;4.55;2.90;;;;;;;;;;6100675;29;20032;-81
2021/10/20 01:33:49;;;;;;;3.47;3.00;;;;;;;;;;6100934;29;20374;-81
2021/10/20 01:36:50;;;;;;;6.95;3.22;;;10.10;99.90;;;;;;6100591;29;20031;-82
2021/10/20 01:39:51;;;;;;;3.38;3.00;;;10.30;99.90;;;;;;6119737;29;20035;-81
2021/10/20 01:42:52;;;;;;;4.78;3.22;;;;;;;;;;6121446;29;20046;-81
2021/10/20 01:45:53;;;;;;;4.30;3.53;;;9.90;99.90;;;;;;6122746;29;20422;-81
2021/10/20 01:48:53;;;;;;;3.72;3.33;;;10.00;99.90;;;;;;6121268;29;20067;-81
2021/10/20 01:51:54;;;;;;;4.95;3.10;;;9.50;99.90;;;;;;6121171;29;20039;-81
2021/10/20 01:54:54;;;;;;;5.38;3.28;;;9.60;99.90;;;;;;6122567;29;20063;-81
2021/10/20 01:57:55;;;;;;;3.75;3.35;;;9.60;99.90;;;;;;6122498;29;20039;-81
2021/10/20 02:00:55;;;;;;;5.05;3.00;;;9.30;99.90;;;;;;6120896;29;20050;-81
2021/10/20 02:03:56;;;;;;;3.92;3.33;;;9.90;99.90;;;;;;6121482;29;20035;-81
2021/10/20 02:06:56;;;;;;;4.20;3.10;;;9.80;99.90;;;;;;6121193;29;20035;-80
2021/10/20 02:09:57;;;;;;;6.05;3.85;;;9.40;99.90;;;;;;6104037;29;20075;-81
2021/10/20 02:12:57;;;;;;;6.07;3.58;;;9.60;99.90;;;;;;6110209;29;20035;-81
2021/10/20 02:15:58;;;;;;;4.13;3.33;;;9.50;99.90;;;;;;6122248;29;20107;-81
2021/10/20 02:18:59;;;;;;;4.00;2.97;;;9.40;99.90;;;;;;6121028;29;20036;-80
2021/10/20 02:22:00;;;;;;;4.35;3.10;;;9.20;99.90;;;;;;6122089;29;20064;-81
2021/10/20 02:25:01;;;;;;;4.15;3.47;;;9.40;99.90;;;;;;6120986;29;20100;-80
2021/10/20 02:28:01;;;;;;;3.65;3.30;;;10.30;99.90;;;;;;6105086;29;20028;-81
2021/10/20 02:31:02;;;;;;;4.75;3.28;;;;;;;;;;6122452;29;20031;-81
2021/10/20 02:34:03;;;;;;;6.47;3.10;;;9.20;99.90;;;;;;6121408;29;20032;-81
2021/10/20 02:37:03;;;;;;;5.78;3.40;;;9.40;99.90;;;;;;6099887;29;20036;-81
2021/10/20 02:40:04;;;;;;;6.68;3.80;;;9.40;99.90;;;;;;6104615;29;20040;-81
2021/10/20 02:43:05;;;;;;;5.13;3.80;;;9.10;99.90;;;;;;6123500;29;20031;-81
2021/10/20 02:46:06;;;;;;;3.92;3.30;;;9.10;99.90;;;;;;6120402;29;20039;-81
2021/10/20 02:49:07;;;;;;;6.30;3.55;;;9.00;99.90;;;;;;6125644;29;20082;-81
2021/10/20 02:52:08;;;;;;;5.10;3.53;;;;;;;;;;6126899;29;20032;-81
2021/10/20 02:55:09;;;;;;;6.03;3.67;;;;;;;;;;6125088;29;20028;-81
2021/10/20 02:58:10;;;;;;;4.03;3.30;;;;;;;;;;6125186;29;20042;-81
2021/10/20 03:01:10;;;;;;;4.53;3.28;;;9.10;99.90;;;;;;6124798;29;20474;-81
2021/10/20 03:04:11;;;;;;;5.18;3.40;;;8.90;99.90;;;;;;6125306;29;20033;-82
2021/10/20 03:07:12;;;;;;;3.88;2.95;;;9.00;99.90;;;;;;6124920;29;20458;-81
2021/10/20 03:10:12;;;;;;;5.28;3.40;;;8.90;99.90;;;;;;6124902;29;20079;-81
2021/10/20 03:13:13;;;;;;;4.68;3.58;;;9.20;99.90;;;;;;6124813;29;20488;-81
2021/10/20 03:16:13;;;;;;;6.60;3.70;;;9.00;99.90;;;;;;6125265;29;20050;-81
2021/10/20 03:19:14;;;;;;;4.78;3.72;;;9.40;99.90;;;;;;6124669;29;20078;-80
2021/10/20 03:22:14;;;;;;;5.63;3.33;;;8.90;99.90;;;;;;6126133;29;20031;-81
2021/10/20 03:25:15;;;;;;;4.00;3.60;;;8.80;99.90;;;;;;6124507;29;20398;-80
2021/10/20 03:28:16;;;;;;;3.65;3.20;;;8.30;99.90;;;;;;6125552;29;20433;-81
2021/10/20 03:31:19;;;;;;;4.30;3.40;;;8.30;99.90;;;;;;6124675;29;20040;-81
2021/10/20 03:34:20;;;;;;;4.85;3.63;;;8.40;99.90;;;;;;6125729;29;20130;-81
2021/10/20 03:37:20;;;;;;;4.97;3.88;;;8.40;99.90;;;;;;6124474;29;20479;-80
2021/10/20 03:40:21;;;;;;;3.90;3.28;;;8.20;99.90;;;;;;6124109;29;20036;-81
2021/10/20 03:43:21;;;;;;;5.95;3.70;;;8.40;99.90;;;;;;6125423;29;21087;-81
2021/10/20 03:46:22;;;;;;;3.90;3.22;;;9.00;99.90;;;;;;6110470;29;20032;-81
2021/10/20 03:49:22;;;;;;;4.57;3.40;;;8.70;99.90;;;;;;6102475;29;20119;-81
2021/10/20 03:52:23;;;;;;;4.72;3.25;;;8.40;99.90;;;;;;6102714;29;20032;-81
2021/10/20 03:55:24;;;;;;;4.60;3.33;;;8.50;99.90;;;;;;6101236;29;20466;-82
2021/10/20 03:58:25;;;;;;;3.85;3.47;;;;;;;;;;6121106;29;20442;-81
2021/10/20 04:01:26;;;;;;;4.25;3.25;;;8.90;99.90;;;;;;6124686;29;20047;-81
2021/10/20 04:04:27;;;;;;;4.43;3.38;;;9.00;99.90;;;;;;6108291;29;20028;-81
2021/10/20 04:07:28;;;;;;;4.35;3.25;;;;;;;;;;6124115;29;20031;-81
2021/10/20 04:10:29;;;;;;;5.45;3.55;;;;;;;;;;6106480;29;20499;-81
2021/10/20 04:13:30;;;;;;;6.10;4.68;;;;;;;;;;6100776;29;20060;-81
2021/10/20 04:16:31;;;;;;;4.47;3.85;;;8.70;99.90;;;;;;6101115;29;20040;-81
2021/10/20 04:19:31;;;;;;;9.15;3.75;;;8.30;99.90;;;;;;6101846;29;20122;-80
2021/10/20 04:22:32;;;;;;;5.60;3.63;;;;;;;;;;6100335;29;20032;-81
2021/10/20 04:25:33;;;;;;;5.15;3.63;;;8.20;99.90;;;;;;6100595;29;20067;-81
2021/10/20 04:28:33;;;;;;;4.93;3.85;;;8.20;99.90;;;;;;6084348;29;20028;-81
2021/10/20 04:31:34;;;;;;;5.20;4.20;;;8.40;99.90;;;;;;6104535;29;20028;-81
2021/10/20 04:34:35;;;;;;;4.65;3.78;;;;;;;;;;6119930;29;20039;-81
2021/10/20 04:37:36;;;;;;;7.05;4.43;;;8.00;99.90;;;;;;6124535;29;20032;-82
2021/10/20 04:40:37;;;;;;;5.35;4.45;;;;;;;;;;6104412;29;20039;-81
2021/10/20 04:45:33;;;;;;;44.70;27.98;;;8.20;99.90;;;;;;6295746;27;20264;-80
2021/10/20 04:48:34;;;;;;;5.65;4.45;;;;;;;;;;6288190;28;20029;-80
2021/10/20 04:51:34;;;;;;;7.00;5.22;;;8.00;99.90;;;;;;6289250;28;20070;-79
2021/10/20 04:54:35;;;;;;;4.85;4.00;;;;;;;;;;6290179;28;20036;-81
2021/10/20 04:57:36;;;;;;;5.75;5.05;;;;;;;;;;6287976;28;20028;-82
2021/10/20 05:00:37;;;;;;;7.43;4.75;;;7.90;99.90;;;;;;6288471;28;20029;-82
2021/10/20 05:03:38;;;;;;;6.63;4.85;;;;;;;;;;6287121;28;20435;-80
2021/10/20 05:06:39;;;;;;;6.05;4.15;;;;;;;;;;6288700;28;20033;-82
2021/10/20 05:09:40;;;;;;;6.35;4.50;;;7.80;99.90;;;;;;6289023;28;20025;-85
2021/10/20 05:12:41;;;;;;;5.45;3.90;;;7.90;99.90;;;;;;6287666;28;20481;-82
2021/10/20 05:15:42;;;;;;;6.43;4.70;;;8.10;99.90;;;;;;6270946;28;20036;-81
2021/10/20 05:18:43;;;;;;;34.17;28.95;;;8.40;99.90;;;;;;6269931;28;20074;-82
2021/10/20 05:21:43;;;;;;;9.75;6.55;;;7.90;99.90;;;;;;6270773;28;20475;-81
2021/10/20 05:24:44;;;;;;;7.35;4.28;;;;;;;;;;6269624;28;20064;-83
2021/10/20 05:27:45;;;;;;;6.60;4.80;;;7.90;99.90;;;;;;6287748;28;20039;-81
2021/10/20 05:30:46;;;;;;;6.28;4.45;;;8.00;99.90;;;;;;6287186;28;20086;-81
2021/10/20 05:33:46;;;;;;;7.13;4.38;;;8.10;99.90;;;;;;6287419;28;20390;-82
2021/10/20 05:36:47;;;;;;;6.10;4.47;;;8.20;99.90;;;;;;6287023;28;20035;-81
2021/10/20 05:39:48;;;;;;;5.22;4.70;;;;;;;;;;6253629;28;20024;-85
2021/10/20 05:42:49;;;;;;;4.95;4.00;;;8.30;99.90;;;;;;6270168;28;20055;-85
2021/10/20 05:45:50;;;;;;;6.00;4.47;;;8.90;99.90;;;;;;6253804;28;20029;-84
2021/10/20 05:48:51;;;;;;;6.40;3.80;;;;;;;;;;6253743;28;20036;-85
2021/10/20 05:51:51;;;;;;;4.53;3.78;;;8.70;99.90;;;;;;6269871;28;20033;-87
2021/10/20 05:54:52;;;;;;;4.68;4.07;;;8.70;99.90;;;;;;6264867;28;20053;-86
2021/10/20 05:57:53;;;;;;;5.43;3.75;;;;;;;;;;6253852;28;20033;-87
2021/10/20 06:00:53;;;;;;;4.80;4.00;;;8.90;99.90;;;;;;6270708;28;20028;-83
2021/10/20 06:03:54;;;;;;;4.65;4.13;;;9.20;99.90;;;;;;6268438;28;20044;-83
2021/10/20 06:06:54;;;;;;;4.55;3.75;;;8.90;99.90;;;;;;6269708;28;20033;-83
2021/10/20 06:09:55;;;;;;;5.95;3.83;;;8.90;99.90;;;;;;6236220;28;20119;-83
2021/10/20 06:12:55;;;;;;;6.60;4.28;;;8.80;99.90;;;;;;6268836;28;20058;-83
2021/10/20 06:15:56;;;;;;;6.75;4.93;;;8.80;99.90;;;;;;6252580;28;20104;-83
2021/10/20 06:18:57;;;;;;;6.85;4.38;;;8.80;99.90;;;;;;6235910;28;20375;-84
2021/10/20 06:21:58;;;;;;;4.93;4.40;;;8.50;99.90;;;;;;6252822;28;20032;-83
2021/10/20 06:24:58;;;;;;;5.80;4.60;;;9.00;99.90;;;;;;6252767;28;20547;-83
2021/10/20 06:27:59;;;;;;;5.13;4.05;;;9.50;99.90;;;;;;6269057;28;20025;-83
2021/10/20 06:31:00;;;;;;;8.82;5.10;;;9.10;99.90;;;;;;6269389;28;20056;-83
2021/10/20 06:34:00;;;;;;;5.40;4.55;;;9.20;99.90;;;;;;6252699;28;20069;-83
2021/10/20 06:37:02;;;;;;;6.20;4.32;;;9.20;99.90;;;;;;6269306;28;20029;-83
2021/10/20 06:40:04;;;;;;;6.20;3.97;;;9.20;99.90;;;;;;6251876;28;20021;-84
2021/10/20 06:43:04;;;;;;;6.05;4.63;;;9.60;99.90;;;;;;6252230;28;20147;-83
2021/10/20 06:46:05;;;;;;;6.47;4.60;;;9.50;99.90;;;;;;6252101;28;20036;-83
2021/10/20 06:49:06;;;;;;;9.02;4.70;;;9.80;99.90;;;;;;6235350;28;20463;-84
2021/10/20 06:52:07;;;;;;;6.13;4.80;;;;;;;;;;6268226;28;20033;-84
2021/10/20 06:55:08;;;;;;;5.45;4.57;;;10.10;99.90;;;;;;6252057;28;20375;-83
2021/10/20 06:58:08;;;;;;;5.70;4.70;;;11.00;99.90;;;;;;6251759;28;20502;-83
2021/10/20 07:01:09;;;;;;;7.88;6.85;;;11.50;99.90;;;;;;6252498;28;20029;-83
2021/10/20 07:04:11;;;;;;;6.05;4.50;;;11.70;99.90;;;;;;6251703;28;20073;-84
2021/10/20 07:07:13;;;;;;;5.95;5.05;;;12.40;99.90;;;;;;6250722;28;20029;-84
2021/10/20 07:10:14;;;;;;;6.25;4.70;;;;;;;;;;6269716;28;20140;-84
2021/10/20 07:13:15;;;;;;;7.70;5.05;;;14.20;99.90;;;;;;6269633;28;20410;-84
2021/10/20 07:16:16;;;;;;;6.57;5.17;;;14.20;99.90;;;;;;6251853;28;20033;-84
2021/10/20 07:19:17;;;;;;;6.63;5.32;;;14.70;99.90;;;;;;6251814;28;20528;-84
2021/10/20 07:22:17;;;;;;;12.32;8.88;;;15.20;99.90;;;;;;6251530;28;20029;-84
2021/10/20 07:25:18;;;;;;;6.70;5.35;;;15.60;99.90;;;;;;6250963;28;20102;-84
2021/10/20 07:28:19;;;;;;;7.13;4.97;;;15.70;99.90;;;;;;6269414;28;20060;-84
2021/10/20 07:31:20;;;;;;;7.68;5.72;;;15.90;99.90;;;;;;6251156;28;20033;-83
2021/10/20 07:34:21;;;;;;;7.43;6.15;;;;;;;;;;6250981;28;20928;-84
2021/10/20 07:37:21;;;;;;;9.25;5.55;;;16.50;99.90;;;;;;6267645;28;20031;-84
2021/10/20 07:40:22;;;;;;;11.02;8.65;;;17.20;99.90;;;;;;6267291;28;20036;-84
2021/10/20 07:43:22;;;;;;;8.82;6.30;;;17.40;99.90;;;;;;6250709;28;20147;-84
2021/10/20 07:46:23;;;;;;;6.93;4.97;;;17.60;99.90;;;;;;6250582;28;20035;-83
2021/10/20 07:49:24;;;;;;;9.90;7.80;;;18.10;98.70;;;;;;6267915;28;20434;-83
2021/10/20 07:52:26;;;;;;;10.60;5.60;;;18.40;99.90;;;;;;6250674;28;20037;-84
2021/10/20 07:55:26;;;;;;;10.85;5.70;;;18.60;98.70;;;;;;6267485;28;20061;-84
2021/10/20 07:58:27;;;;;;;8.02;4.75;;;18.50;98.00;;;;;;6250487;28;20033;-84
2021/10/20 08:01:28;;;;;;;7.13;4.78;;;18.90;99.90;;;;;;6234234;28;20029;-84
2021/10/20 08:04:28;;;;;;;6.68;5.72;;;19.20;99.90;;;;;;6250345;28;20045;-84
2021/10/20 08:07:29;;;;;;;5.72;4.55;;;;;;;;;;6249964;28;20486;-84
2021/10/20 08:10:30;;;;;;;7.45;5.15;;;19.40;99.90;;;;;;6268566;28;20024;-84
2021/10/20 08:13:30;;;;;;;5.45;4.72;;;19.80;99.90;;;;;;6250228;28;20460;-84
2021/10/20 08:16:31;;;;;;;6.43;4.80;;;20.00;99.90;;;;;;6250210;28;20368;-85
2021/10/20 08:19:32;;;;;;;4.75;4.25;;;19.90;94.90;;;;;;6250155;28;20115;-84
2021/10/20 08:22:33;;;;;;;6.95;4.60;;;;;;;;;;6267155;28;20078;-84
2021/10/20 08:25:37;;;;;;;5.07;4.57;;;;;;;;;;6266371;28;20067;-84
2021/10/20 08:28:37;;;;;;;6.13;4.10;;;20.80;99.20;;;;;;6250258;28;20025;-84
2021/10/20 08:31:38;;;;;;;11.07;8.55;;;;;;;;;;6267313;28;20037;-84
2021/10/20 08:34:39;;;;;;;5.43;4.43;;;;;;;;;;6265157;28;20028;-84
2021/10/20 08:37:40;;;;;;;6.45;4.65;;;;;;;;;;6249647;28;20025;-84
2021/10/20 08:40:45;;;;;;;6.20;4.50;;;;;;;;;;6268032;28;20473;-84
2021/10/20 08:43:46;;;;;;;8.55;3.92;;;22.30;99.90;;;;;;6265831;28;20471;-84
2021/10/20 08:46:46;;;;;;;5.78;4.35;;;22.00;96.50;;;;;;6249681;28;20035;-85
2021/10/20 08:49:47;;;;;;;4.82;4.32;;;22.20;90.00;;;;;;6250076;28;20151;-84
2021/10/20 08:52:48;;;;;;;4.80;3.95;;;22.80;87.30;;;;;;6267203;28;20029;-84
2021/10/20 08:55:49;;;;;;;5.57;4.00;;;23.30;83.10;;;;;;6266692;28;20135;-84
2021/10/20 08:58:50;;;;;;;8.83;6.23;;;23.80;82.50;;;;;;6266145;28;20037;-85
2021/10/20 09:01:50;;;;;;;7.13;4.85;;;24.10;81.60;;;;;;6250114;28;20025;-85
2021/10/20 09:04:54;;;;;;;5.28;3.83;;;24.50;87.80;;;;;;6249715;28;20470;-84
2021/10/20 09:07:55;;;;;;;6.70;4.30;;;24.50;75.50;;;;;;6248886;28;20025;-85
2021/10/20 09:10:56;;;;;;;8.43;4.10;;;24.60;74.60;;;;;;6232888;28;20036;-84
2021/10/20 09:14:04;;;;;;;6.90;4.23;;;24.70;73.40;;;;;;6232677;28;20033;-84
2021/10/20 09:17:05;;;;;;;4.30;3.85;;;24.40;74.60;;;;;;6250176;28;20029;-85
2021/10/20 09:20:18;;;;;;;5.80;4.60;;;25.20;75.80;;;;;;6265704;28;20035;-84
2021/10/20 09:23:22;;;;;;;5.72;4.13;;;26.50;69.50;;;;;;6250006;28;20132;-85
2021/10/20 09:26:26;;;;;;;5.43;3.80;;;27.30;63.90;;;;;;6232763;28;20064;-85
2021/10/20 09:29:29;;;;;;;4.00;3.60;;;28.00;62.20;;;;;;6231746;28;20051;-85
2021/10/20 09:32:29;;;;;;;5.20;3.55;;;27.70;59.40;;;;;;6253676;28;20071;-85
2021/10/20 09:35:30;;;;;;;3.80;3.40;;;27.00;63.50;;;;;;6237392;28;20451;-85
2021/10/20 09:38:41;;;;;;;5.07;3.50;;;27.00;62.00;;;;;;6270521;28;20082;-85
2021/10/20 09:41:41;;;;;;;4.38;3.30;;;26.80;61.10;;;;;;6254485;28;20029;-85
2021/10/20 09:44:49;;;;;;;4.20;3.53;;;26.40;62.30;;;;;;6236603;28;20060;-84
2021/10/20 09:47:52;;;;;;;6.88;4.45;;;26.30;62.40;;;;;;6253845;28;20040;-85
2021/10/20 09:51:04;;;;;;;3.55;3.20;;;26.80;62.60;;;;;;6253370;28;20120;-85
2021/10/20 09:54:24;;;;;;;6.10;3.92;;;27.50;62.00;;;;;;6254099;28;20033;-85
2021/10/20 09:57:31;;;;;;;4.97;3.50;;;28.30;59.70;;;;;;6269445;28;20035;-85
2021/10/20 10:00:31;;;;;;;4.07;3.15;;;28.20;60.20;;;;;;6253304;28;20099;-85
2021/10/20 10:03:32;;;;;;;3.50;3.20;;;27.70;61.90;;;;;;6234752;28;20040;-85
2021/10/20 10:06:33;;;;;;;4.97;2.93;;;27.50;61.30;;;;;;6251286;28;20032;-85
2021/10/20 10:09:33;;;;;;;5.33;3.30;;;26.80;60.90;;;;;;6234944;28;20029;-86
2021/10/20 10:12:34;;;;;;;4.10;3.37;;;26.60;61.70;;;;;;6251965;28;20033;-86
2021/10/20 10:15:39;;;;;;;5.57;3.20;;;26.60;62.90;;;;;;6236923;28;20032;-85
2021/10/20 10:18:39;;;;;;;3.97;3.20;;;26.70;61.60;;;;;;6253204;28;20029;-86
2021/10/20 10:21:42;;;;;;;3.03;2.77;;;26.60;62.40;;;;;;6252828;28;20040;-85
2021/10/20 10:24:44;;;;;;;4.63;3.20;;;26.80;62.70;;;;;;6252885;28;20635;-86
2021/10/20 10:28:06;;;;;;;4.47;2.95;;;27.30;61.10;;;;;;6252468;28;20028;-86
2021/10/20 10:31:09;;;;;;;5.32;3.05;;;27.70;60.00;;;;;;6252441;28;20036;-86
2021/10/20 10:34:34;;;;;;;3.30;3.00;;;27.50;60.20;;;;;;6236252;28;20071;-86
2021/10/20 10:37:35;;;;;;;3.65;3.13;;;26.60;60.40;;;;;;6269298;28;20033;-86
2021/10/20 10:40:36;;;;;;;3.42;2.90;;;26.10;61.70;;;;;;6235831;28;20036;-86
2021/10/20 10:44:07;;;;;;;4.30;2.90;;;25.40;63.90;;;;;;6251568;28;20053;-86
2021/10/20 10:47:27;;;;;;;3.50;2.83;;;24.80;63.10;;;;;;6269427;28;20459;-85
2021/10/20 10:50:53;;;;;;;3.10;2.80;;;24.30;66.70;;;;;;6237841;28;20541;-86
2021/10/20 10:54:00;;;;;;;4.30;3.13;;;24.00;66.20;;;;;;6268780;28;20059;-86
2021/10/20 10:57:18;;;;;;;3.42;2.85;;;23.90;66.40;;;;;;6253022;28;20393;-86
2021/10/20 11:00:19;;;;;;;4.18;3.33;;;24.10;67.70;;;;;;6252104;28;20036;-86
2021/10/20 11:03:27;;;;;;;3.67;3.37;;;23.80;67.50;;;;;;6268539;28;20040;-86
2021/10/20 11:06:27;;;;;;;5.00;3.78;;;23.50;68.20;;;;;;6267934;28;20403;-85
2021/10/20 11:09:34;;;;;;;3.30;2.90;;;23.30;68.10;;;;;;6251981;28;20108;-85
2021/10/20 11:12:34;;;;;;;4.22;2.90;;;23.40;68.10;;;;;;6236196;28;20037;-86
2021/10/20 11:15:35;;;;;;;5.17;3.07;;;23.50;69.40;;;;;;6251605;28;20028;-86
2021/10/20 11:18:37;;;;;;;3.25;2.95;;;23.60;69.10;;;;;;6234762;28;20024;-85
2021/10/20 11:21:37;;;;;;;;;;;23.80;68.60;;;;;;6268699;28;20025;-85
2021/10/20 11:24:42;;;;;;;4.40;3.28;;;24.10;81.60;;;;;;6250658;28;19971;-86
2021/10/20 11:27:47;;;;;;;4.32;3.05;;;24.10;83.20;;;;;;6235262;28;20128;-86
2021/10/20 11:30:47;;;;;;;4.40;3.20;;;23.80;91.90;;;;;;6250383;28;20064;-86
2021/10/20 11:33:48;;;;;;;5.23;3.00;;;23.80;83.70;;;;;;6265054;28;20390;-84
2021/10/20 11:36:49;;;;;;;8.32;3.22;;;23.60;83.60;;;;;;6267438;28;20033;-85
2021/10/20 11:39:57;;;;;;;3.43;3.13;;;23.40;82.60;;;;;;6233386;28;20091;-84
2021/10/20 11:42:58;;;;;;;3.50;2.97;;;22.80;82.80;;;;;;6234433;28;20106;-84
2021/10/20 11:46:00;;;;;;;3.95;3.22;;;23.00;80.30;;;;;;6266773;28;20128;-84
2021/10/20 11:49:01;;;;;;;4.10;3.17;;;22.60;73.30;;;;;;6251632;28;20028;-85
2021/10/20 11:52:04;;;;;;;4.72;2.95;;;22.10;72.30;;;;;;6267493;28;20135;-85
2021/10/20 11:55:05;;;;;;;4.95;3.45;;;21.30;90.00;;;;;;6234443;28;20020;-84
2021/10/20 11:58:05;;;;;;;3.43;3.03;;;21.30;74.80;;;;;;6234492;28;20033;-84
2021/10/20 12:01:07;;;;;;;3.60;3.00;;;21.10;76.20;;;;;;6251191;28;20056;-85
2021/10/20 12:04:08;;;;;;;4.20;3.80;;;20.90;76.40;;;;;;6250984;28;20078;-86
2021/10/20 12:07:10;;;;;;;7.07;3.55;;;20.80;77.50;;;;;;6233579;28;20044;-84
2021/10/20 12:10:11;;;;;;;7.97;3.70;;;20.40;91.70;;;;;;6251076;28;20032;-84
2021/10/20 12:13:12;;;;;;;3.80;3.38;;;20.40;79.40;;;;;;6233847;28;20055;-86
2021/10/20 12:16:15;;;;;;;4.68;3.65;;;20.40;81.30;;;;;;6234153;28;20029;-82
2021/10/20 12:19:19;;;;;;;4.20;3.38;;;20.40;81.00;;;;;;6251042;28;20029;-86
2021/10/20 12:22:20;;;;;;;3.80;3.25;;;20.30;80.60;;;;;;6250924;28;20074;-87
2021/10/20 12:25:20;;;;;;;3.97;3.22;;;20.30;82.10;;;;;;6250571;28;20037;-86
2021/10/20 12:28:24;;;;;;;3.67;3.33;;;20.30;81.80;;;;;;6233743;28;20032;-85
2021/10/20 12:31:25;;;;;;;4.25;3.30;;;;;;;;;;6250480;28;20537;-86
2021/10/20 12:34:27;;;;;;;5.38;3.42;;;20.20;82.10;;;;;;6266450;28;20021;-86
2021/10/20 12:37:39;;;;;;;3.55;3.25;;;20.20;83.50;;;;;;6248102;28;20025;-86
2021/10/20 12:48:23;;;;;;;3.83;3.30;;;;;;;;;;6238265;28;20108;-86
2021/10/20 12:51:26;;;;;;;6.35;3.30;;;20.10;83.50;;;;;;6214849;28;20483;-82
2021/10/20 12:54:29;;;;;;;4.40;3.30;;;;;;;;;;6207495;28;20037;-82
2021/10/20 12:57:30;;;;;;;4.68;3.67;;;;;;;;;;6212777;28;20029;-84
2021/10/20 13:00:31;;;;;;;4.15;3.60;;;;;;;;;;6206544;28;20127;-84
2021/10/20 13:03:32;;;;;;;6.00;3.78;;;20.20;99.90;;;;;;6206513;28;20040;-86
2021/10/20 13:06:33;;;;;;;5.22;3.33;;;;;;;;;;6226575;28;20467;-81
2021/10/20 13:09:34;;;;;;;10.02;3.88;;;;;;;;;;6244291;28;20029;-85
2021/10/20 13:12:37;;;;;;;5.50;3.30;;;;;;;;;;6211788;28;20438;-84
2021/10/20 13:15:37;;;;;;;3.92;3.53;;;20.80;91.80;;;;;;6211499;28;20124;-83
2021/10/20 13:18:38;;;;;;;4.43;3.25;;;20.60;85.60;;;;;;6227766;28;20088;-83
2021/10/20 13:21:39;;;;;;;3.88;3.47;;;20.70;85.80;;;;;;6194154;28;20060;-86
2021/10/20 13:24:39;;;;;;;6.65;3.30;;;20.80;87.30;;;;;;6205436;28;20045;-84
2021/10/20 13:27:41;;;;;;;7.15;3.53;;;;;;;;;;6173223;28;20029;-86
2021/10/20 13:30:42;;;;;;;4.03;2.90;;;21.00;88.00;;;;;;6206095;28;20729;-81
2021/10/20 13:33:42;;;;;;;7.80;4.23;;;21.00;87.60;;;;;;6221187;28;20022;-77
2021/10/20 13:36:43;;;;;;;5.63;3.38;;;21.00;88.20;;;;;;6222149;28;20040;-80
2021/10/20 13:39:43;;;;;;;9.05;4.07;;;21.10;87.00;;;;;;6220380;28;20037;-80
2021/10/20 13:42:44;;;;;;;5.25;3.17;;;21.40;95.20;;;;;;6221328;28;20257;-79
2021/10/20 13:45:48;;;;;;;8.35;4.40;;;21.30;86.00;;;;;;6246410;28;20487;-79
2021/10/20 13:48:48;;;;;;;5.18;3.42;;;21.30;87.20;;;;;;6269940;28;20044;-81
2021/10/20 13:51:49;;;;;;;4.22;3.25;;;21.30;87.30;;;;;;6252746;28;20025;-81
2021/10/20 13:54:50;;;;;;;7.80;3.45;;;21.40;86.80;;;;;;6253127;28;20840;-82
2021/10/20 13:57:51;;;;;;;4.68;3.22;;;21.50;85.10;;;;;;6269591;28;20025;-81
2021/10/20 14:00:51;;;;;;;4.13;3.30;;;21.50;86.80;;;;;;6253312;28;20040;-81
2021/10/20 14:03:52;;;;;;;3.65;3.17;;;21.60;86.00;;;;;;6269769;28;20036;-80
2021/10/20 14:06:56;;;;;;;6.68;3.50;;;21.70;86.00;;;;;;6252982;28;20033;-80
2021/10/20 14:09:56;;;;;;;8.18;3.70;;;21.70;85.30;;;;;;6253351;28;20110;-79
2021/10/20 14:12:57;;;;;;;6.50;3.72;;;21.70;85.30;;;;;;6270135;28;20033;-81
2021/10/20 14:15:58;;;;;;;4.07;3.47;;;21.70;84.80;;;;;;6252554;28;20481;-81
2021/10/20 14:18:59;;;;;;;12.13;3.83;;;21.80;85.00;;;;;;6253285;28;20033;-81
2021/10/20 14:22:00;;;;;;;5.00;3.70;;;21.80;85.30;;;;;;6252958;28;20051;-82
2021/10/20 14:25:01;;;;;;;8.30;4.07;;;21.90;85.50;;;;;;6236128;28;20060;-84
2021/10/20 14:28:01;;;;;;;4.75;3.65;;;21.80;94.70;;;;;;6252537;28;20116;-81
2021/10/20 14:31:02;;;;;;;5.40;4.00;;;21.70;85.50;;;;;;6247870;28;20394;-83
2021/10/20 14:34:08;;;;;;;4.35;3.63;;;21.80;86.10;;;;;;6252498;28;20113;-81
2021/10/20 14:37:09;;;;;;;12.00;3.72;;;21.90;85.30;;;;;;6252222;28;20064;-81
2021/10/20 14:40:11;;;;;;;3.78;3.35;;;21.80;85.60;;;;;;6268920;28;20428;-81
2021/10/20 14:43:11;;;;;;;5.13;3.50;;;21.70;86.10;;;;;;6269855;28;20474;-81
2021/10/20 14:46:12;;;;;;;3.72;3.38;;;21.60;86.90;;;;;;6251045;28;20055;-83
2021/10/20 14:49:13;;;;;;;6.88;3.83;;;21.50;87.50;;;;;;6234739;28;20032;-82
2021/10/20 14:52:13;;;;;;;4.10;3.47;;;21.50;88.20;;;;;;6251960;28;20028;-81
2021/10/20 14:55:14;;;;;;;8.82;7.88;;;21.40;88.70;;;;;;6251558;28;20026;-82
2021/10/20 14:58:15;;;;;;;10.88;8.95;;;21.30;88.60;;;;;;6251923;28;20029;-81
2021/10/20 15:01:16;;;;;;;4.60;4.10;;;21.30;88.50;;;;;;6269657;28;20094;-80
2021/10/20 15:04:16;;;;;;;6.40;5.10;;;21.20;89.20;;;;;;6252021;28;20545;-80
2021/10/20 15:07:17;;;;;;;5.63;4.20;;;21.10;89.30;;;;;;6251589;28;20041;-81
2021/10/20 15:10:20;;;;;;;4.30;3.90;;;;;;;;;;6251230;28;20072;-81
2021/10/20 15:13:21;;;;;;;4.32;3.88;;;20.90;89.20;;;;;;6268146;28;20459;-82
2021/10/20 15:16:22;;;;;;;4.45;3.75;;;20.90;90.10;;;;;;6267957;28;20155;-80
2021/10/20 15:22:32;;;;;;;4.40;3.85;;;20.90;97.30;;;;;;6269394;28;20395;-81
2021/10/20 15:25:34;;;;;;;4.40;3.90;;;20.80;90.60;;;;;;6267582;28;20037;-81
2021/10/20 15:28:35;;;;;;;;;;;20.70;90.90;;;;;;6268743;28;20451;-81
2021/10/20 15:31:35;;;;;;;6.22;4.00;;;20.70;91.00;;;;;;6269276;28;19966;-82
2021/10/20 15:34:37;;;;;;;5.30;4.32;;;20.60;91.00;;;;;;6267648;28;20867;-82
2021/10/20 15:37:42;;;;;;;4.63;4.13;;;20.60;91.20;;;;;;6251541;28;20025;-82
2021/10/20 15:40:43;;;;;;;7.07;4.32;;;20.50;91.20;;;;;;6266860;28;20032;-82
2021/10/20 15:43:45;;;;;;;6.60;4.13;;;20.50;91.20;;;;;;6250834;28;20041;-82
2021/10/20 15:46:46;;;;;;;5.78;4.25;;;20.50;91.60;;;;;;6250284;28;20398;-83
2021/10/20 15:49:48;;;;;;;6.00;4.97;;;20.50;96.20;;;;;;6234349;28;20029;-83
2021/10/20 15:52:49;;;;;;;5.38;4.28;;;20.30;92.20;;;;;;6267179;28;20815;-84
2021/10/20 15:55:50;;;;;;;5.82;4.28;;;;;;;;;;6250566;28;20043;-82
2021/10/20 15:58:51;;;;;;;6.25;5.00;;;;;;;;;;6267562;28;20502;-82
2021/10/20 16:01:51;;;;;;;4.82;4.15;;;19.90;99.90;;;;;;6266463;28;20106;-83
2021/10/20 16:04:52;;;;;;;4.85;4.13;;;20.10;99.90;;;;;;6250564;28;20135;-82
2021/10/20 16:07:52;;;;;;;4.90;4.25;;;20.30;98.70;;;;;;6248842;28;20397;-80
2021/10/20 16:10:53;;;;;;;8.52;4.80;;;20.10;99.90;;;;;;6267542;28;20040;-80
2021/10/20 16:13:54;;;;;;;7.53;5.50;;;19.90;99.30;;;;;;6265703;28;20436;-80
2021/10/20 16:16:54;;;;;;;5.28;4.25;;;20.00;99.30;;;;;;6266074;28;20032;-80
2021/10/20 16:19:55;;;;;;;7.30;5.05;;;19.50;99.00;;;;;;6249908;28;21076;-80
2021/10/20 16:22:56;;;;;;;5.55;4.65;;;;;;;;;;6267613;28;20106;-80